»·PEaware :: FSLCD KSNA-KAVX

FSLCD :: KSNA-KAVX

FLIGHT INFORMATION

Flight Status: Arrived
Operator: Unknown
More flights by this operator :: More flights under this callsign
Pilot: Gopalakrishna Pillai Sulekha S. (22834)
Aircraft: ROBIN DR-400
(DR40)
More flights by this aircraft type
Origin: KSNA John Wayne-Orange Co
United States
Destination: KAVX Catalina
United States
More flights between these airports :: More routes between these airports
Route: SLI V21 SXC
File this flight plan on PilotEdge
Remarks: I7 RATING
Altitude:
(Current/Filed)
4,000ft
Speed:
(Current/Filed)
120kts
Departed: 19-Feb-19 08:29 AM
Arrived: 19-Feb-19 09:06 AM
Distance/Time
Traveled:
32nm/0:36
Distance/Time
To Go:
Arrived

Flight Plot

Page will automatically refresh every two minutes.


Map Options




Map Legend


Flown Route
Filed Route
Departure Airport
Arrival Airport
Navaid (VOR, NDB)
Fix

Horizontal Profiles

Position Reports

Time Latitude Longitude Heading Altitude Ground
Speed
19-Feb-19 08:18 33.666709 -117.871858 316 52ft 0kts
19-Feb-19 08:18 33.666709 -117.871858 316 52ft 0kts
19-Feb-19 08:19 33.666709 -117.871858 316 52ft 0kts
19-Feb-19 08:20 33.666709 -117.871858 316 52ft 0kts
19-Feb-19 08:21 33.666709 -117.871858 316 52ft 0kts
19-Feb-19 08:22 33.666709 -117.871858 316 52ft 0kts
19-Feb-19 08:23 33.667281 -117.872122 3 52ft 11kts
19-Feb-19 08:24 33.671186 -117.868849 34 49ft 20kts
19-Feb-19 08:25 33.675334 -117.866334 28 45ft 18kts
19-Feb-19 08:26 33.679526 -117.863687 27 39ft 16kts
19-Feb-19 08:27 33.679969 -117.863643 301 39ft 0kts
19-Feb-19 08:28 33.678532 -117.865176 207 39ft 62kts
19-Feb-19 08:29 33.660144 -117.884071 231 1240ft 97kts
19-Feb-19 08:30 33.639424 -117.910844 240 2012ft 129kts
19-Feb-19 08:31 33.635249 -117.947483 271 2786ft 94kts
19-Feb-19 08:32 33.631011 -117.975812 271 3982ft 97kts
19-Feb-19 08:33 33.626341 -118.013061 271 3997ft 110kts
19-Feb-19 08:34 33.621635 -118.048782 271 3999ft 107kts
19-Feb-19 08:35 33.616910 -118.084264 271 3998ft 105kts
19-Feb-19 08:36 33.612167 -118.118256 271 3999ft 102kts
19-Feb-19 08:37 33.607390 -118.151024 271 3998ft 97kts
19-Feb-19 08:38 33.601714 -118.182182 266 3998ft 95kts
19-Feb-19 08:39 33.587763 -118.210532 245 3999ft 102kts
19-Feb-19 08:40 33.570967 -118.238350 240 3998ft 104kts
19-Feb-19 08:41 33.549298 -118.262487 228 3999ft 107kts
19-Feb-19 08:42 33.525900 -118.286094 228 3962ft 110kts
19-Feb-19 08:43 33.502623 -118.310844 226 3963ft 113kts
19-Feb-19 08:44 33.475755 -118.329840 191 3962ft 112kts
19-Feb-19 08:45 33.446048 -118.337914 191 3963ft 108kts
19-Feb-19 08:46 33.416863 -118.345896 191 3964ft 108kts
19-Feb-19 08:47 33.387514 -118.353964 191 3964ft 108kts
19-Feb-19 08:48 33.358172 -118.362069 191 3964ft 108kts
19-Feb-19 08:49 33.343346 -118.385058 281 3965ft 93kts
19-Feb-19 08:50 33.348083 -118.414416 294 3964ft 89kts
19-Feb-19 08:51 33.360980 -118.426512 13 3959ft 54kts
19-Feb-19 08:52 33.374466 -118.423960 6 3976ft 56kts
19-Feb-19 08:53 33.392914 -118.416807 9 3964ft 74kts
19-Feb-19 08:54 33.413089 -118.414451 7 3964ft 72kts
19-Feb-19 08:55 33.435018 -118.411643 14 3444ft 85kts
19-Feb-19 08:56 33.453995 -118.407664 13 3367ft 68kts
19-Feb-19 08:57 33.474259 -118.403326 13 3364ft 77kts
19-Feb-19 08:58 33.491258 -118.422248 318 3364ft 89kts
19-Feb-19 08:59 33.508160 -118.442156 6 3373ft 73kts
19-Feb-19 09:00 33.503800 -118.422889 141 2712ft 103kts
19-Feb-19 09:01 33.482646 -118.411281 151 2287ft 65kts
19-Feb-19 09:02 33.460812 -118.406083 184 2284ft 89kts
19-Feb-19 09:03 33.436375 -118.410018 174 2180ft 96kts
19-Feb-19 09:04 33.415362 -118.406123 179 1777ft 62kts
19-Feb-19 09:05 33.404445 -118.416707 235 1553ft 20kts
19-Feb-19 09:06 33.403491 -118.415140 307 1545ft 0kts
19-Feb-19 09:07 33.403492 -118.415142 310 1545ft 0kts

Navigation Log

Ident Type
Flight plan parsing failed, navigation log unavailable